West Hartland, Connecticut
Current Conditions -  °F | °C
As of 10:51 AM on Monday 29 Dec 2014 (Local Time) from KBDL Reporting Station
Broken Clouds Broken Clouds  
Wind Chill: 32°   Ceiling: 4200
Heat Index: 40°   Visibility: 10mi
Dew Point: 21°   Wind: 14mph
Humidity: 47%   Direction: 290°WNW
Pressure: 30.14"   Gusts: 18mph
Location:  42°N, 72.97°W
Report Text: KBDL 291551Z 29012G16KT 10SM BKN042 BKN200 04/M06 A3014 RMK AO2 SLP208 T00441061
Loading
Personal Weather Stations






























Interactive Weather Map New forecast layout! Learn more

10-Day Weather Forecast

Advertisements
Track Severe Weather on mobile